createdAt,value
2022-11-04T00:01:42.922Z,31.98
2022-11-04T00:04:14.291Z,31.75
2022-11-04T00:06:43.603Z,34.70
2022-11-04T00:09:20.948Z,31.30
2022-11-04T00:12:10.539Z,34.38
2022-11-04T00:14:41.447Z,34.30
2022-11-04T00:17:19.416Z,35.58
2022-11-04T00:20:12.050Z,34.25
2022-11-04T00:23:02.847Z,32.75
2022-11-04T00:25:51.345Z,35.60
2022-11-04T00:28:39.360Z,34.38
2022-11-04T00:31:27.426Z,34.80
2022-11-04T00:33:58.336Z,36.80
2022-11-04T00:36:27.023Z,33.15
2022-11-04T00:38:57.570Z,32.92
2022-11-04T00:41:27.728Z,35.15
2022-11-04T00:44:06.532Z,38.50
2022-11-04T00:46:36.291Z,35.95
2022-11-04T00:49:03.638Z,36.97
2022-11-04T00:51:32.843Z,32.97
2022-11-04T00:54:06.788Z,31.77
2022-11-04T00:56:37.950Z,34.85
2022-11-04T00:59:10.377Z,34.05
2022-11-04T01:01:42.690Z,36.85
2022-11-04T01:04:12.126Z,32.38
2022-11-04T01:06:40.238Z,32.45
2022-11-04T01:09:12.821Z,31.90
2022-11-04T01:11:42.329Z,33.60
2022-11-04T01:14:12.621Z,34.78
2022-11-04T01:16:41.577Z,33.50
2022-11-04T01:19:12.020Z,35.88
2022-11-04T01:21:39.497Z,31.98
2022-11-04T01:24:07.800Z,32.60
2022-11-04T01:26:37.241Z,37.15
2022-11-04T01:29:06.588Z,34.40
2022-11-04T01:31:35.120Z,35.92
2022-11-04T01:34:03.944Z,32.92
2022-11-04T01:36:32.133Z,31.92
2022-11-04T01:39:00.640Z,34.50
2022-11-04T01:41:31.374Z,37.78
2022-11-04T01:44:01.387Z,31.08
2022-11-04T01:46:32.959Z,30.27
2022-11-04T01:49:27.353Z,34.40
2022-11-04T01:52:10.344Z,32.65
2022-11-04T01:54:39.149Z,34.03
2022-11-04T01:57:15.207Z,33.60
2022-11-04T01:59:44.917Z,30.77
2022-11-04T02:02:16.040Z,35.53
2022-11-04T02:04:46.349Z,33.80
2022-11-04T02:07:15.490Z,38.30
2022-11-04T02:09:45.048Z,34.58
2022-11-04T02:12:34.199Z,31.12
2022-11-04T02:15:04.775Z,37.28
2022-11-04T02:18:02.196Z,36.72
2022-11-04T02:20:48.563Z,38.20
2022-11-04T02:23:43.546Z,33.45
2022-11-04T02:26:18.733Z,39.53
2022-11-04T02:29:08.727Z,37.85
2022-11-04T02:31:44.026Z,44.15
2022-11-04T02:37:23.720Z,41.97
2022-11-04T02:40:24.715Z,41.03
2022-11-04T02:43:23.132Z,41.83
2022-11-04T02:46:25.394Z,41.92
2022-11-04T02:49:03.817Z,39.55
2022-11-04T02:51:40.282Z,42.62
2022-11-04T02:54:12.974Z,43.17
2022-11-04T02:56:46.725Z,41.92
2022-11-04T02:59:34.604Z,40.80
2022-11-04T03:02:08.782Z,41.45
2022-11-04T03:04:45.980Z,41.60
2022-11-04T03:07:17.801Z,39.03
2022-11-04T03:09:51.546Z,39.25
2022-11-04T03:12:28.657Z,44.70
2022-11-04T03:15:05.943Z,42.20
2022-11-04T03:17:47.302Z,41.40
2022-11-04T03:20:23.041Z,42.72
2022-11-04T03:22:59.867Z,40.10
2022-11-04T03:25:39.569Z,42.20
2022-11-04T03:28:12.222Z,41.05
2022-11-04T03:30:43.556Z,41.50
2022-11-04T03:33:15.857Z,43.08
2022-11-04T03:35:43.382Z,38.03
2022-11-04T03:38:13.391Z,40.92
2022-11-04T03:40:42.576Z,40.60
2022-11-04T03:43:18.765Z,40.53
2022-11-04T03:45:48.880Z,38.30
2022-11-04T03:48:17.702Z,36.40
2022-11-04T03:50:53.040Z,40.97
2022-11-04T03:53:35.285Z,39.63
2022-11-04T03:56:52.806Z,40.00
2022-11-04T03:59:50.565Z,39.08
2022-11-04T04:02:25.929Z,38.50
2022-11-04T04:05:19.006Z,46.30
2022-11-04T04:08:15.417Z,40.55
2022-11-04T04:11:23.819Z,43.90
2022-11-04T04:14:33.689Z,41.65
2022-11-04T04:17:36.568Z,51.33
2022-11-04T04:20:18.836Z,44.15
2022-11-04T04:23:29.904Z,43.95
2022-11-04T04:26:30.725Z,45.08
2022-11-04T04:29:09.350Z,46.47
2022-11-04T04:31:51.575Z,44.38
2022-11-04T04:34:30.051Z,47.78
2022-11-04T04:37:23.534Z,45.65
2022-11-04T04:40:25.127Z,47.97
2022-11-04T04:43:19.850Z,50.25
2022-11-04T04:45:54.557Z,46.55
2022-11-04T04:48:28.920Z,50.92
2022-11-04T04:51:02.573Z,42.13
2022-11-04T04:53:32.647Z,55.35
2022-11-04T04:56:09.860Z,45.72
2022-11-04T04:58:45.315Z,49.55
2022-11-04T05:01:23.389Z,50.92
2022-11-04T05:03:51.911Z,51.53
2022-11-04T05:06:22.428Z,47.17
2022-11-04T05:08:50.909Z,46.70
2022-11-04T05:11:27.220Z,58.58
2022-11-04T05:13:56.087Z,56.60
2022-11-04T05:16:39.456Z,54.70
2022-11-04T05:19:20.762Z,55.33
2022-11-04T05:21:50.708Z,53.40
2022-11-04T05:24:34.245Z,57.58
2022-11-04T05:27:11.570Z,53.58
2022-11-04T05:29:47.287Z,51.42
2022-11-04T05:32:21.237Z,53.47
2022-11-04T05:34:54.207Z,54.95
2022-11-04T05:37:29.669Z,50.28
2022-11-04T05:40:02.320Z,49.50
2022-11-04T05:42:35.608Z,52.40
2022-11-04T05:45:10.614Z,47.88
2022-11-04T05:48:09.272Z,49.58
2022-11-04T05:50:41.974Z,48.42
2022-11-04T05:53:11.159Z,50.12
2022-11-04T05:55:39.506Z,49.55
2022-11-04T05:58:07.710Z,49.78
2022-11-04T06:00:36.709Z,53.05
2022-11-04T06:03:04.916Z,52.13
2022-11-04T06:05:33.367Z,50.25
2022-11-04T06:08:01.190Z,53.78
2022-11-04T06:10:29.376Z,54.80
2022-11-04T06:13:00.641Z,53.78
2022-11-04T06:15:30.464Z,56.65
2022-11-04T06:17:59.056Z,58.50
2022-11-04T06:20:28.041Z,51.78
2022-11-04T06:22:57.499Z,50.20
2022-11-04T06:25:26.682Z,54.28
2022-11-04T06:27:55.617Z,54.60
2022-11-04T06:30:23.736Z,58.22
2022-11-04T06:32:51.535Z,56.92
2022-11-04T06:35:19.474Z,58.75
2022-11-04T06:37:49.197Z,64.20
2022-11-04T06:40:17.700Z,56.22
2022-11-04T06:42:47.019Z,53.55
2022-11-04T06:45:17.799Z,48.25
2022-11-04T06:47:47.089Z,56.72
2022-11-04T06:50:17.259Z,57.03
2022-11-04T06:52:45.216Z,61.00
2022-11-04T06:55:13.390Z,56.78
2022-11-04T06:57:41.565Z,61.63
2022-11-04T07:00:11.439Z,57.22
2022-11-04T07:02:41.621Z,58.92
2022-11-04T07:05:12.587Z,60.75
2022-11-04T07:07:40.267Z,59.42
2022-11-04T07:10:10.188Z,65.18
2022-11-04T07:12:39.472Z,62.67
2022-11-04T07:15:10.013Z,60.85
2022-11-04T07:17:39.915Z,57.80
2022-11-04T07:20:08.421Z,61.03
2022-11-04T07:22:37.388Z,56.65
2022-11-04T07:25:06.562Z,60.00
2022-11-04T07:27:35.796Z,56.55
2022-11-04T07:30:03.404Z,56.70
2022-11-04T07:32:33.047Z,61.53
2022-11-04T07:35:03.450Z,62.28
2022-11-04T07:37:33.280Z,58.83
2022-11-04T07:40:01.124Z,68.07
2022-11-04T07:42:29.849Z,55.05
2022-11-04T07:44:58.606Z,59.92
2022-11-04T07:47:30.867Z,56.13
2022-11-04T07:50:02.928Z,54.60
2022-11-04T07:52:33.496Z,57.92
2022-11-04T07:55:01.147Z,55.05
2022-11-04T07:57:30.375Z,51.40
2022-11-04T07:59:59.953Z,52.95
2022-11-04T08:02:34.856Z,50.67
2022-11-04T08:05:07.226Z,51.78
2022-11-04T08:07:36.023Z,62.62
2022-11-04T08:10:06.198Z,53.75
2022-11-04T08:12:34.335Z,49.95
2022-11-04T08:15:03.230Z,53.87
2022-11-04T08:17:33.662Z,54.05
2022-11-04T08:20:02.309Z,54.90
2022-11-04T08:22:33.085Z,56.30
2022-11-04T08:25:03.677Z,53.03
2022-11-04T08:27:32.908Z,51.00
2022-11-04T08:30:03.531Z,58.58
2022-11-04T08:32:31.635Z,50.60
2022-11-04T08:35:00.589Z,53.47
2022-11-04T08:37:30.675Z,62.33
2022-11-04T08:40:01.240Z,56.50
2022-11-04T08:42:30.004Z,57.92
2022-11-04T08:44:57.366Z,57.90
2022-11-04T08:47:27.630Z,59.58
2022-11-04T08:49:57.661Z,58.90
2022-11-04T08:52:25.750Z,59.35
2022-11-04T08:54:57.412Z,57.20
2022-11-04T08:57:26.157Z,53.53
2022-11-04T08:59:56.148Z,55.88
2022-11-04T09:02:26.685Z,50.12
2022-11-04T09:04:55.403Z,58.05
2022-11-04T09:07:25.333Z,58.28
2022-11-04T09:09:53.567Z,57.90
2022-11-04T09:12:24.092Z,58.08
2022-11-04T09:14:51.508Z,54.20
2022-11-04T09:17:19.607Z,54.20
2022-11-04T09:19:48.117Z,53.45
2022-11-04T09:22:15.921Z,52.92
2022-11-04T09:24:44.262Z,54.65
2022-11-04T09:27:12.592Z,50.25
2022-11-04T09:29:41.977Z,55.35
2022-11-04T09:32:10.708Z,52.25
2022-11-04T09:34:40.427Z,59.78
2022-11-04T09:37:09.781Z,55.30
2022-11-04T09:39:38.943Z,51.33
2022-11-04T09:42:21.593Z,55.53
2022-11-04T09:47:49.120Z,51.93
2022-11-04T09:50:26.023Z,55.17
2022-11-04T09:52:59.085Z,54.90
2022-11-04T09:55:42.940Z,58.08
2022-11-04T09:58:15.166Z,51.58
2022-11-04T10:00:49.527Z,59.63
2022-11-04T10:03:21.695Z,65.65
2022-11-04T10:06:19.550Z,55.53
2022-11-04T10:08:56.477Z,58.00
2022-11-04T10:11:32.253Z,58.47
2022-11-04T10:18:27.405Z,51.88
2022-11-04T10:21:06.934Z,54.95
2022-11-04T10:23:50.247Z,56.15
2022-11-04T10:26:32.349Z,54.13
2022-11-04T10:29:13.824Z,56.15
2022-11-04T10:31:45.081Z,58.58
2022-11-04T10:34:34.828Z,53.28
2022-11-04T10:37:04.859Z,56.63
2022-11-04T10:39:39.960Z,53.63
2022-11-04T10:42:12.206Z,56.70
2022-11-04T10:44:41.546Z,58.70
2022-11-04T10:47:32.325Z,56.63
2022-11-04T10:50:29.991Z,60.08
2022-11-04T10:53:19.337Z,52.47
2022-11-04T10:55:50.322Z,58.85
2022-11-04T10:58:30.537Z,57.75
2022-11-04T11:00:59.565Z,57.35
2022-11-04T11:03:35.777Z,53.58
2022-11-04T11:06:37.664Z,57.40
2022-11-04T11:09:14.138Z,57.83
2022-11-04T11:11:51.109Z,54.45
2022-11-04T11:14:28.583Z,49.15
2022-11-04T11:17:15.277Z,57.42
2022-11-04T11:19:51.711Z,55.53
2022-11-04T11:22:31.679Z,55.42
2022-11-04T11:25:28.376Z,52.28
2022-11-04T11:28:05.307Z,50.95
2022-11-04T11:30:42.093Z,53.80
2022-11-04T11:33:33.291Z,53.80
2022-11-04T11:36:16.040Z,52.72
2022-11-04T11:38:57.261Z,59.15
2022-11-04T11:41:33.280Z,54.15
2022-11-04T11:44:20.695Z,54.75
2022-11-04T11:46:56.250Z,53.47
2022-11-04T11:49:29.148Z,55.67
2022-11-04T11:52:29.100Z,55.57
2022-11-04T11:55:07.649Z,57.33
2022-11-04T12:01:19.370Z,60.63
2022-11-04T12:10:51.726Z,61.40
2022-11-04T12:13:38.063Z,65.05
2022-11-04T12:16:11.216Z,67.32
2022-11-04T12:18:58.440Z,63.28
2022-11-04T12:21:34.026Z,61.17
2022-11-04T12:24:27.861Z,62.97
2022-11-04T12:27:07.881Z,69.03
2022-11-04T12:30:04.280Z,66.80
2022-11-04T12:32:52.478Z,68.15
2022-11-04T12:35:45.422Z,65.20
2022-11-04T12:38:36.448Z,69.68
2022-11-04T12:42:19.055Z,63.85
2022-11-04T12:44:44.965Z,66.35
2022-11-04T12:47:20.563Z,59.25
2022-11-04T12:50:18.293Z,67.78
2022-11-04T12:52:51.248Z,65.10
2022-11-04T12:55:48.280Z,65.10
2022-11-04T12:58:31.746Z,81.97
2022-11-04T13:01:11.055Z,76.37
2022-11-04T13:04:11.168Z,71.37
2022-11-04T13:06:47.478Z,67.25
2022-11-04T13:09:22.242Z,70.82
2022-11-04T13:11:56.767Z,65.22
2022-11-04T13:14:31.223Z,67.45
2022-11-04T13:17:11.008Z,66.57
2022-11-04T13:19:54.999Z,73.10
2022-11-04T13:22:27.283Z,63.95
2022-11-04T13:25:01.143Z,66.07
2022-11-04T13:27:33.846Z,74.37
2022-11-04T13:30:09.843Z,66.87
2022-11-04T13:32:49.377Z,65.30
2022-11-04T13:35:24.116Z,65.78
2022-11-04T13:40:50.849Z,59.97
2022-11-04T13:43:39.917Z,70.97
2022-11-04T13:46:09.265Z,68.70
2022-11-04T13:48:50.788Z,64.43
2022-11-04T13:51:20.976Z,57.13
2022-11-04T13:53:54.977Z,56.03
2022-11-04T13:56:38.837Z,60.40
2022-11-04T13:59:23.708Z,60.45
2022-11-04T14:04:44.566Z,58.67
2022-11-04T14:07:18.680Z,63.00
2022-11-04T14:09:54.787Z,59.92
2022-11-04T14:12:33.321Z,60.42
2022-11-04T14:15:06.733Z,57.58
2022-11-04T14:17:40.610Z,57.08
2022-11-04T14:20:23.447Z,65.20
2022-11-04T14:22:55.075Z,63.38
2022-11-04T14:25:32.122Z,61.47
2022-11-04T14:28:10.070Z,60.95
2022-11-04T14:30:42.785Z,57.05
2022-11-04T14:33:29.149Z,56.78
2022-11-04T14:36:14.794Z,51.78
2022-11-04T14:38:48.145Z,64.10
2022-11-04T14:41:50.821Z,54.63
2022-11-04T14:44:27.049Z,49.47
2022-11-04T14:47:04.322Z,50.72
2022-11-04T14:49:36.960Z,50.55
2022-11-04T14:52:16.043Z,55.25
2022-11-04T14:54:44.450Z,51.28
2022-11-04T14:57:19.212Z,50.35
2022-11-04T14:59:49.762Z,47.20
2022-11-04T15:02:26.856Z,47.60
2022-11-04T15:04:59.627Z,54.83
2022-11-04T15:07:34.935Z,51.50
2022-11-04T15:10:19.999Z,45.83
2022-11-04T15:12:52.013Z,53.78
2022-11-04T15:15:29.707Z,47.00
2022-11-04T15:18:05.293Z,47.00
2022-11-04T15:20:35.018Z,48.47
2022-11-04T15:23:04.504Z,48.45
2022-11-04T15:25:33.514Z,50.03
2022-11-04T15:28:01.398Z,45.65
2022-11-04T15:30:32.112Z,47.53
2022-11-04T15:33:02.864Z,48.55
2022-11-04T15:35:33.861Z,46.53
2022-11-04T15:38:04.361Z,44.67
2022-11-04T15:40:39.728Z,50.00
2022-11-04T15:43:07.751Z,48.90
2022-11-04T15:45:39.513Z,49.75
2022-11-04T15:48:36.502Z,46.72
2022-11-04T15:51:23.100Z,47.97
2022-11-04T15:54:00.137Z,43.30
2022-11-04T15:56:33.377Z,48.10
2022-11-04T15:59:02.220Z,45.42
2022-11-04T16:01:33.632Z,44.78
2022-11-04T16:04:04.295Z,43.60
2022-11-04T16:06:38.845Z,47.22
2022-11-04T16:09:27.937Z,43.83
2022-11-04T16:12:04.900Z,49.80
2022-11-04T16:14:34.556Z,42.70
2022-11-04T16:17:04.353Z,43.35
2022-11-04T16:19:33.246Z,45.10
2022-11-04T16:22:12.344Z,43.67
2022-11-04T16:24:46.959Z,46.33
2022-11-04T16:27:20.017Z,48.20
2022-11-04T16:30:09.299Z,39.70
2022-11-04T16:32:46.557Z,47.60
2022-11-04T16:35:25.283Z,44.10
2022-11-04T16:37:56.604Z,44.75
2022-11-04T16:40:25.022Z,43.70
2022-11-04T16:42:53.575Z,42.75
2022-11-04T16:45:30.094Z,41.25
2022-11-04T16:47:57.558Z,37.42
2022-11-04T16:50:29.397Z,46.78
2022-11-04T16:52:59.764Z,43.47
2022-11-04T16:55:30.480Z,42.15
2022-11-04T16:58:03.642Z,43.70
2022-11-04T17:00:34.163Z,47.07
2022-11-04T17:03:21.656Z,43.65
2022-11-04T17:05:55.649Z,43.80
2022-11-04T17:08:26.780Z,47.88
2022-11-04T17:10:56.094Z,44.45
2022-11-04T17:13:29.783Z,46.40
2022-11-04T17:16:03.293Z,46.05
2022-11-04T17:18:33.189Z,45.80
2022-11-04T17:21:07.067Z,46.20
2022-11-04T17:23:39.368Z,46.47
2022-11-04T17:26:10.887Z,41.42
2022-11-04T17:28:38.804Z,40.50
2022-11-04T17:31:12.114Z,42.75
2022-11-04T17:33:41.813Z,44.00
2022-11-04T17:36:19.699Z,44.05
2022-11-04T17:38:49.655Z,45.33
2022-11-04T17:41:37.803Z,45.50
2022-11-04T17:44:08.723Z,44.42
2022-11-04T17:46:39.242Z,44.75
2022-11-04T17:49:17.001Z,44.13
2022-11-04T17:51:49.264Z,45.15
2022-11-04T17:54:19.029Z,43.58
2022-11-04T17:56:48.680Z,39.75
2022-11-04T17:59:18.534Z,43.72
2022-11-04T18:01:48.237Z,43.50
2022-11-04T18:04:22.783Z,39.72
2022-11-04T18:06:58.431Z,42.40
2022-11-04T18:09:36.606Z,40.55
2022-11-04T18:12:28.594Z,40.20
2022-11-04T18:14:58.230Z,42.33
2022-11-04T18:17:30.969Z,42.45
2022-11-04T18:19:59.989Z,41.67
2022-11-04T18:22:29.773Z,45.70
2022-11-04T18:24:59.956Z,42.97
2022-11-04T18:27:32.153Z,40.83
2022-11-04T18:30:02.179Z,44.80
2022-11-04T18:32:32.091Z,41.35
2022-11-04T18:35:01.441Z,40.38
2022-11-04T18:37:30.777Z,44.65
2022-11-04T18:40:02.161Z,48.55
2022-11-04T18:42:32.837Z,45.42
2022-11-04T18:45:02.613Z,43.05
2022-11-04T18:47:34.600Z,43.03
2022-11-04T18:50:04.238Z,45.00
2022-11-04T18:52:33.502Z,47.17
2022-11-04T18:55:02.770Z,43.78
2022-11-04T18:57:30.708Z,42.53
2022-11-04T19:00:00.398Z,47.13
2022-11-04T19:02:32.286Z,46.15
2022-11-04T19:05:03.598Z,45.20
2022-11-04T19:07:32.682Z,49.78
2022-11-04T19:10:03.395Z,46.05
2022-11-04T19:12:50.546Z,49.65
2022-11-04T19:15:20.172Z,43.28
2022-11-04T19:17:49.360Z,43.72
2022-11-04T19:20:20.236Z,57.20
2022-11-04T19:22:49.083Z,55.33
2022-11-04T19:25:19.605Z,48.60
2022-11-04T19:28:05.267Z,58.75
2022-11-04T19:30:39.215Z,56.85
2022-11-04T19:33:08.653Z,64.53
2022-11-04T19:35:37.515Z,68.07
2022-11-04T19:38:07.351Z,63.25
2022-11-04T19:40:39.447Z,58.58
2022-11-04T19:43:11.578Z,56.58
2022-11-04T19:45:43.046Z,59.05
2022-11-04T19:48:14.509Z,61.67
2022-11-04T19:50:49.019Z,63.87
2022-11-04T19:53:21.866Z,59.08
2022-11-04T19:56:00.364Z,55.22
2022-11-04T19:58:29.879Z,48.17
2022-11-04T20:01:08.520Z,51.42
2022-11-04T20:03:38.737Z,46.08
2022-11-04T20:06:10.320Z,49.47
2022-11-04T20:08:43.214Z,56.90
2022-11-04T20:11:14.131Z,50.03
2022-11-04T20:13:49.037Z,45.65
2022-11-04T20:16:24.713Z,45.23
2022-11-04T20:19:02.059Z,46.90
2022-11-04T20:21:34.052Z,45.58
2022-11-04T20:24:06.410Z,47.90
2022-11-04T20:26:38.429Z,46.65
2022-11-04T20:29:08.349Z,41.80
2022-11-04T20:31:40.017Z,49.58
2022-11-04T20:34:12.531Z,44.25
2022-11-04T20:36:42.660Z,47.50
2022-11-04T20:39:15.002Z,45.85
2022-11-04T20:41:47.766Z,48.38
2022-11-04T20:44:18.441Z,46.13
2022-11-04T20:46:46.992Z,44.92
2022-11-04T20:49:17.152Z,47.62
2022-11-04T20:51:54.780Z,44.13
2022-11-04T20:54:24.377Z,53.00
2022-11-04T20:56:54.482Z,54.85
2022-11-04T20:59:23.221Z,50.00
2022-11-04T21:01:51.802Z,52.53
2022-11-04T21:04:22.691Z,48.25
2022-11-04T21:06:53.214Z,48.92
2022-11-04T21:09:22.184Z,56.10
2022-11-04T21:11:52.193Z,52.10
2022-11-04T21:14:20.967Z,60.50
2022-11-04T21:16:51.832Z,59.50
2022-11-04T21:19:23.219Z,60.58
2022-11-04T21:21:52.707Z,60.55
2022-11-04T21:24:21.610Z,59.75
2022-11-04T21:26:50.304Z,69.72
2022-11-04T21:29:20.503Z,64.28
2022-11-04T21:31:49.942Z,69.40
2022-11-04T21:34:21.102Z,66.93
2022-11-04T21:36:53.461Z,63.58
2022-11-04T21:39:23.016Z,72.12
2022-11-04T21:41:50.919Z,70.03
2022-11-04T21:44:18.890Z,73.40
2022-11-04T21:46:50.914Z,76.78
2022-11-04T21:49:18.803Z,82.03
2022-11-04T21:51:48.003Z,70.10
2022-11-04T21:54:16.694Z,69.15
2022-11-04T21:56:46.820Z,72.82
2022-11-04T21:59:18.360Z,84.97
2022-11-04T22:01:47.024Z,84.25
2022-11-04T22:04:16.211Z,80.70
2022-11-04T22:06:45.855Z,72.62
2022-11-04T22:09:14.256Z,66.50
2022-11-04T22:11:42.901Z,48.33
2022-11-04T22:14:12.615Z,51.70
2022-11-04T22:16:40.806Z,44.28
2022-11-04T22:19:15.667Z,44.20
2022-11-04T22:21:46.178Z,36.33
2022-11-04T22:24:18.205Z,34.00
2022-11-04T22:26:47.712Z,32.88
2022-11-04T22:29:15.727Z,27.33
2022-11-04T22:31:46.108Z,26.67
2022-11-04T22:34:14.974Z,23.75
2022-11-04T22:36:43.670Z,24.90
2022-11-04T22:39:16.371Z,26.95
2022-11-04T22:41:46.375Z,27.20
2022-11-04T22:44:15.755Z,32.38
2022-11-04T22:46:44.146Z,28.10
2022-11-04T22:49:14.463Z,26.70
2022-11-04T22:51:42.738Z,20.52
2022-11-04T22:54:11.455Z,18.87
2022-11-04T22:56:41.257Z,18.85
2022-11-04T22:59:11.631Z,13.27
2022-11-04T23:01:41.361Z,15.48
2022-11-04T23:04:11.975Z,14.82
2022-11-04T23:06:42.766Z,14.50
2022-11-04T23:09:13.789Z,15.02
2022-11-04T23:12:01.489Z,13.02
2022-11-04T23:14:38.102Z,13.40
2022-11-04T23:17:40.443Z,14.10
2022-11-04T23:20:12.349Z,14.27
2022-11-04T23:22:59.960Z,13.13
2022-11-04T23:25:28.703Z,13.00
2022-11-04T23:28:17.744Z,13.02
2022-11-04T23:30:51.008Z,12.75
2022-11-04T23:33:18.643Z,13.05
2022-11-04T23:36:08.511Z,9.27
2022-11-04T23:38:37.492Z,10.90
2022-11-04T23:41:28.090Z,9.95
2022-11-04T23:43:57.268Z,9.38
2022-11-04T23:46:44.213Z,10.52
2022-11-04T23:49:33.568Z,8.45
2022-11-04T23:52:22.556Z,10.75
2022-11-04T23:55:10.507Z,8.10
2022-11-04T23:57:56.681Z,8.68
